createdAt,value
2022-09-23T00:00:51.309Z,101568.38
2022-09-23T00:01:55.719Z,101568.8
2022-09-23T00:03:00.253Z,101571.06
2022-09-23T00:04:04.669Z,101566.13
2022-09-23T00:05:08.943Z,101570.22
2022-09-23T00:06:13.209Z,101569.77
2022-09-23T00:07:17.499Z,101572.81
2022-09-23T00:08:21.736Z,101576.83
2022-09-23T00:09:26.033Z,101571.06
2022-09-23T00:10:30.340Z,101574.23
2022-09-23T00:11:34.623Z,101579.08
2022-09-23T00:12:38.875Z,101571.2
2022-09-23T00:13:44.180Z,101570.64
2022-09-23T00:14:48.477Z,101576.83
2022-09-23T00:15:52.779Z,101565.23
2022-09-23T00:16:57.193Z,101568.53
2022-09-23T00:18:01.692Z,101564.06
2022-09-23T00:19:06.215Z,101564.52
2022-09-23T00:20:10.496Z,101571.82
2022-09-23T00:21:14.770Z,101574.34
2022-09-23T00:22:19.033Z,101560.2
2022-09-23T00:23:23.286Z,101559.28
2022-09-23T00:24:27.598Z,101564.16
2022-09-23T00:25:31.902Z,101560.62
2022-09-23T00:26:36.156Z,101557.94
2022-09-23T00:27:40.420Z,101563.7
2022-09-23T00:28:47.174Z,101560.56
2022-09-23T00:29:51.428Z,101562.67
2022-09-23T00:30:55.855Z,101559.17
2022-09-23T00:32:00.216Z,101565.34
2022-09-23T00:33:04.474Z,101567.61
2022-09-23T00:34:08.776Z,101566.38
2022-09-23T00:35:13.044Z,101566.33
2022-09-23T00:36:17.331Z,101563.7
2022-09-23T00:37:21.652Z,101566.83
2022-09-23T00:38:25.919Z,101561.48
2022-09-23T00:39:30.217Z,101559.78
2022-09-23T00:40:34.544Z,101555.77
2022-09-23T00:41:39.093Z,101561.54
2022-09-23T00:42:43.442Z,101564.63
2022-09-23T00:43:47.767Z,101561.95
2022-09-23T00:44:52.027Z,101558.5
2022-09-23T00:45:56.385Z,101559.34
2022-09-23T00:47:00.761Z,101563.85
2022-09-23T00:48:05.067Z,101558.09
2022-09-23T00:49:09.376Z,101559.78
2022-09-23T00:50:13.626Z,101555.47
2022-09-23T00:51:18.042Z,101557.22
2022-09-23T00:52:22.319Z,101553.62
2022-09-23T00:53:26.573Z,101554.08
2022-09-23T00:54:30.891Z,101551.87
2022-09-23T00:55:35.181Z,101551.45
2022-09-23T00:56:39.432Z,101550.95
2022-09-23T00:57:43.700Z,101547.45
2022-09-23T00:58:47.982Z,101551.94
2022-09-23T00:59:52.269Z,101550.12
2022-09-23T01:00:56.677Z,101547.03
2022-09-23T01:02:01.377Z,101545.61
2022-09-23T01:03:06.087Z,101543.44
2022-09-23T01:04:10.355Z,101547.45
2022-09-23T01:05:14.654Z,101539.78
2022-09-23T01:06:18.953Z,101542.45
2022-09-23T01:07:23.225Z,101543.8
2022-09-23T01:08:27.503Z,101536.69
2022-09-23T01:09:31.759Z,101546.47
2022-09-23T01:10:36.075Z,101544.72
2022-09-23T01:11:40.364Z,101530.9
2022-09-23T01:12:44.604Z,101543.38
2022-09-23T01:13:48.884Z,101535.36
2022-09-23T01:14:53.169Z,101540.26
2022-09-23T01:15:58.455Z,101538.92
2022-09-23T01:17:02.833Z,101535
2022-09-23T01:18:07.270Z,101541.23
2022-09-23T01:19:11.558Z,101535.89
2022-09-23T01:20:15.832Z,101536.8
2022-09-23T01:21:20.077Z,101540.34
2022-09-23T01:22:24.377Z,101539.9
2022-09-23T01:23:28.679Z,101535.05
2022-09-23T01:24:32.919Z,101533.66
2022-09-23T01:25:37.179Z,101527.39
2022-09-23T01:26:41.420Z,101535.41
2022-09-23T01:27:45.700Z,101532.44
2022-09-23T01:28:50.020Z,101532.44
2022-09-23T01:29:54.263Z,101531.52
2022-09-23T01:30:58.689Z,101531.87
2022-09-23T01:32:03.170Z,101535
2022-09-23T01:33:07.434Z,101531.87
2022-09-23T01:34:11.687Z,101529.7
2022-09-23T01:35:15.969Z,101526.47
2022-09-23T01:36:20.250Z,101531.05
2022-09-23T01:37:24.514Z,101528.31
2022-09-23T01:38:28.849Z,101530.62
2022-09-23T01:39:33.131Z,101526.67
2022-09-23T01:40:37.588Z,101532.02
2022-09-23T01:41:42.001Z,101525.34
2022-09-23T01:42:46.261Z,101532.02
2022-09-23T01:43:50.514Z,101530.69
2022-09-23T01:44:54.757Z,101527.5
2022-09-23T01:45:59.036Z,101534.28
2022-09-23T01:47:03.373Z,101527.95
2022-09-23T01:48:07.797Z,101524.78
2022-09-23T01:49:12.185Z,101533.36
2022-09-23T01:50:16.464Z,101531.1
2022-09-23T01:51:20.715Z,101526.67
2022-09-23T01:52:25.027Z,101522.72
2022-09-23T01:53:29.289Z,101524
2022-09-23T01:54:33.547Z,101527.59
2022-09-23T01:55:37.848Z,101528.93
2022-09-23T01:56:42.157Z,101528.06
2022-09-23T01:57:46.422Z,101519.21
2022-09-23T01:58:50.707Z,101528.06
2022-09-23T01:59:55.002Z,101524.92
2022-09-23T02:00:59.420Z,101523.58
2022-09-23T02:02:03.956Z,101519.57
2022-09-23T02:03:08.348Z,101529.77
2022-09-23T02:04:12.639Z,101521.8
2022-09-23T02:05:16.901Z,101522.78
2022-09-23T02:06:21.186Z,101524.98
2022-09-23T02:07:25.455Z,101525.89
2022-09-23T02:08:29.728Z,101518.34
2022-09-23T02:09:34.024Z,101514.23
2022-09-23T02:10:38.260Z,101519.21
2022-09-23T02:11:42.570Z,101524.47
2022-09-23T02:12:46.819Z,101524.47
2022-09-23T02:13:51.094Z,101515.67
2022-09-23T02:14:55.351Z,101517.93
2022-09-23T02:15:59.613Z,101506.26
2022-09-23T02:17:03.973Z,101522.24
2022-09-23T02:18:08.260Z,101519.21
2022-09-23T02:19:12.562Z,101508.94
2022-09-23T02:20:16.844Z,101510.74
2022-09-23T02:21:21.095Z,101510.83
2022-09-23T02:22:25.417Z,101508.52
2022-09-23T02:23:29.694Z,101509.34
2022-09-23T02:24:34.013Z,101515.05
2022-09-23T02:25:38.270Z,101514.14
2022-09-23T02:26:42.503Z,101515.2
2022-09-23T02:27:46.824Z,101514.28
2022-09-23T02:28:51.058Z,101508.58
2022-09-23T02:29:55.346Z,101513
2022-09-23T02:30:59.595Z,101512.17
2022-09-23T02:32:03.996Z,101508.63
2022-09-23T02:33:08.456Z,101514.9
2022-09-23T02:34:12.724Z,101516.03
2022-09-23T02:35:16.977Z,101511.19
2022-09-23T02:36:21.235Z,101512.94
2022-09-23T02:37:25.520Z,101517.42
2022-09-23T02:38:29.820Z,101513.5
2022-09-23T02:39:34.055Z,101518.41
2022-09-23T02:40:38.557Z,101515.26
2022-09-23T02:41:43.166Z,101509.61
2022-09-23T02:42:47.447Z,101517.98
2022-09-23T02:43:51.738Z,101516.23
2022-09-23T02:44:55.988Z,101512.64
2022-09-23T02:46:00.409Z,101508.22
2022-09-23T02:47:04.788Z,101510.11
2022-09-23T02:48:09.045Z,101511.86
2022-09-23T02:49:13.305Z,101510.47
2022-09-23T02:50:17.551Z,101503.28
2022-09-23T02:51:21.817Z,101505.39
2022-09-23T02:52:26.275Z,101503.28
2022-09-23T02:53:30.526Z,101510.38
2022-09-23T02:54:34.790Z,101514.84
2022-09-23T02:55:39.160Z,101507.8
2022-09-23T02:56:43.444Z,101506.02
2022-09-23T02:57:47.760Z,101509.97
2022-09-23T02:58:52.047Z,101510.02
2022-09-23T02:59:56.312Z,101519.83
2022-09-23T03:01:00.761Z,101512.23
2022-09-23T03:02:05.351Z,101504.26
2022-09-23T03:03:09.716Z,101516.7
2022-09-23T03:04:13.969Z,101518.05
2022-09-23T03:05:18.313Z,101509.61
2022-09-23T03:06:22.564Z,101511.36
2022-09-23T03:07:26.806Z,101516.3
2022-09-23T03:08:31.066Z,101515.93
2022-09-23T03:09:35.318Z,101508.83
2022-09-23T03:10:39.611Z,101503.95
2022-09-23T03:11:44.148Z,101500.39
2022-09-23T03:12:48.430Z,101510.73
2022-09-23T03:13:52.665Z,101507.91
2022-09-23T03:14:56.924Z,101505.23
2022-09-23T03:16:01.373Z,101503.84
2022-09-23T03:17:05.737Z,101506.1
2022-09-23T03:18:10.002Z,101504.14
2022-09-23T03:19:14.312Z,101504.72
2022-09-23T03:20:18.560Z,101507.9
2022-09-23T03:21:22.835Z,101507.59
2022-09-23T03:22:27.098Z,101505.34
2022-09-23T03:23:31.388Z,101508.94
2022-09-23T03:24:35.736Z,101508.94
2022-09-23T03:25:40.160Z,101504.14
2022-09-23T03:26:44.424Z,101506.31
2022-09-23T03:27:48.757Z,101507.23
2022-09-23T03:28:53.016Z,101503.28
2022-09-23T03:29:57.285Z,101505.55
2022-09-23T03:31:01.529Z,101501.17
2022-09-23T03:32:05.898Z,101506.38
2022-09-23T03:33:10.302Z,101506.82
2022-09-23T03:34:14.622Z,101500.61
2022-09-23T03:35:18.891Z,101501.89
2022-09-23T03:36:23.141Z,101503.17
2022-09-23T03:37:27.398Z,101500.97
2022-09-23T03:38:31.652Z,101501.39
2022-09-23T03:39:35.951Z,101495.2
2022-09-23T03:40:41.420Z,101496.12
2022-09-23T03:41:45.758Z,101495.63
2022-09-23T03:42:50.069Z,101493.36
2022-09-23T03:43:54.331Z,101494.28
2022-09-23T03:44:58.630Z,101498.66
2022-09-23T03:46:03.083Z,101490.69
2022-09-23T03:47:07.515Z,101488.88
2022-09-23T03:48:11.794Z,101486.36
2022-09-23T03:49:16.062Z,101489.54
2022-09-23T03:50:20.315Z,101489.03
2022-09-23T03:51:24.591Z,101483.93
2022-09-23T03:52:28.879Z,101491.5
2022-09-23T03:53:33.179Z,101482.15
2022-09-23T03:54:37.472Z,101486.61
2022-09-23T03:55:41.758Z,101479.05
2022-09-23T03:56:46.050Z,101484.41
2022-09-23T03:57:50.319Z,101476.27
2022-09-23T03:58:54.610Z,101477.52
2022-09-23T03:59:58.871Z,101482.86
2022-09-23T04:01:03.295Z,101475.34
2022-09-23T04:02:07.857Z,101471.54
2022-09-23T04:03:13.048Z,101473.23
2022-09-23T04:04:17.338Z,101474.13
2022-09-23T04:05:21.628Z,101472.42
2022-09-23T04:06:25.928Z,101474.37
2022-09-23T04:07:30.212Z,101471.73
2022-09-23T04:08:34.487Z,101464.16
2022-09-23T04:09:38.754Z,101469.42
2022-09-23T04:10:43.050Z,101475.18
2022-09-23T04:11:47.382Z,101474.16
2022-09-23T04:12:51.660Z,101470.11
2022-09-23T04:13:55.917Z,101475.66
2022-09-23T04:15:00.187Z,101470.22
2022-09-23T04:16:04.571Z,101467.55
2022-09-23T04:17:08.982Z,101467.6
2022-09-23T04:18:13.225Z,101470.72
2022-09-23T04:19:17.505Z,101464.57
2022-09-23T04:20:21.753Z,101464.66
2022-09-23T04:21:26.048Z,101470.37
2022-09-23T04:22:30.628Z,101468.22
2022-09-23T04:23:34.871Z,101464.36
2022-09-23T04:24:39.140Z,101460.77
2022-09-23T04:25:43.436Z,101464.56
2022-09-23T04:26:47.714Z,101463.22
2022-09-23T04:27:51.989Z,101465.59
2022-09-23T04:28:56.267Z,101472.28
2022-09-23T04:30:00.512Z,101465.18
2022-09-23T04:31:04.920Z,101461.64
2022-09-23T04:32:09.295Z,101459.89
2022-09-23T04:33:13.595Z,101468.31
2022-09-23T04:34:17.877Z,101458.4
2022-09-23T04:35:22.138Z,101457.89
2022-09-23T04:36:26.417Z,101455.72
2022-09-23T04:37:30.698Z,101453.25
2022-09-23T04:38:35.173Z,101455.84
2022-09-23T04:39:39.504Z,101458.66
2022-09-23T04:40:44.059Z,101457.88
2022-09-23T04:41:48.453Z,101454.41
2022-09-23T04:42:52.712Z,101455.27
2022-09-23T04:43:56.980Z,101456.66
2022-09-23T04:45:01.272Z,101455.88
2022-09-23T04:46:05.528Z,101454.19
2022-09-23T04:47:09.900Z,101459.95
2022-09-23T04:48:14.139Z,101447.09
2022-09-23T04:49:18.398Z,101456.14
2022-09-23T04:50:22.679Z,101458.25
2022-09-23T04:51:26.925Z,101455.11
2022-09-23T04:52:31.311Z,101449.41
2022-09-23T04:53:35.627Z,101448.42
2022-09-23T04:54:39.917Z,101453.56
2022-09-23T04:55:44.179Z,101457.94
2022-09-23T04:56:48.455Z,101454.55
2022-09-23T04:57:52.712Z,101450.03
2022-09-23T04:58:56.991Z,101450.39
2022-09-23T05:00:01.248Z,101454.55
2022-09-23T05:01:06.528Z,101446.02
2022-09-23T05:02:11.142Z,101450.53
2022-09-23T05:03:15.571Z,101454.69
2022-09-23T05:04:19.804Z,101459.68
2022-09-23T05:05:24.060Z,101457.84
2022-09-23T05:06:28.349Z,101453.68
2022-09-23T05:07:32.627Z,101448.7
2022-09-23T05:08:36.941Z,101452.29
2022-09-23T05:09:41.228Z,101456.72
2022-09-23T05:10:45.500Z,101461.23
2022-09-23T05:11:49.787Z,101457.36
2022-09-23T05:12:58.233Z,101462.52
2022-09-23T05:14:02.531Z,101455.58
2022-09-23T05:15:06.828Z,101463.44
2022-09-23T05:16:11.224Z,101456.34
2022-09-23T05:17:15.698Z,101459.84
2022-09-23T05:18:21.880Z,101461.44
2022-09-23T05:19:26.141Z,101460.19
2022-09-23T05:20:30.412Z,101457.02
2022-09-23T05:21:34.683Z,101458.3
2022-09-23T05:22:39.008Z,101463.14
2022-09-23T05:23:43.259Z,101455.2
2022-09-23T05:24:47.759Z,101452.45
2022-09-23T05:25:52.054Z,101460.71
2022-09-23T05:26:56.316Z,101458.16
2022-09-23T05:28:00.592Z,101458.86
2022-09-23T05:29:04.972Z,101460.19
2022-09-23T05:30:09.701Z,101458.91
2022-09-23T05:31:20.886Z,101462.86
2022-09-23T05:32:25.457Z,101464.36
2022-09-23T05:33:29.739Z,101465.34
2022-09-23T05:34:34.074Z,101463.55
2022-09-23T05:35:38.355Z,101467.19
2022-09-23T05:36:42.583Z,101464.52
2022-09-23T05:37:46.850Z,101462.35
2022-09-23T05:38:51.336Z,101461.19
2022-09-23T05:39:55.658Z,101467.13
2022-09-23T05:40:59.981Z,101456.35
2022-09-23T05:42:04.248Z,101460.83
2022-09-23T05:43:08.548Z,101461.38
2022-09-23T05:44:15.099Z,101454.45
2022-09-23T05:45:19.458Z,101465.08
2022-09-23T05:46:23.860Z,101461.55
2022-09-23T05:47:28.244Z,101462.88
2022-09-23T05:48:32.505Z,101460.56
2022-09-23T05:50:00.444Z,101466.62
2022-09-23T05:51:04.977Z,101457.52
2022-09-23T05:52:09.247Z,101467.23
2022-09-23T05:53:13.533Z,101459.58
2022-09-23T05:54:17.785Z,101458.3
2022-09-23T05:55:22.024Z,101465.03
2022-09-23T05:56:26.497Z,101457.16
2022-09-23T05:57:30.813Z,101468.27
2022-09-23T05:58:35.066Z,101467.34
2022-09-23T05:59:39.339Z,101471.76
2022-09-23T06:00:43.630Z,101475.67
2022-09-23T06:01:48.063Z,101475.56
2022-09-23T06:02:55.488Z,101478.04
2022-09-23T06:03:59.985Z,101472.22
2022-09-23T06:05:04.390Z,101475.92
2022-09-23T06:06:08.700Z,101473.81
2022-09-23T06:07:12.960Z,101462.5
2022-09-23T06:08:17.370Z,101463.84
2022-09-23T06:09:21.640Z,101471.14
2022-09-23T06:10:25.929Z,101469
2022-09-23T06:11:30.235Z,101467.66
2022-09-23T06:12:34.528Z,101469.09
2022-09-23T06:13:38.811Z,101468.64
2022-09-23T06:14:43.061Z,101465.97
2022-09-23T06:15:47.444Z,101467.75
2022-09-23T06:16:51.877Z,101473.51
2022-09-23T06:17:56.191Z,101472.79
2022-09-23T06:19:06.836Z,101463.73
2022-09-23T06:20:11.242Z,101465.55
2022-09-23T06:21:15.496Z,101466.47
2022-09-23T06:22:19.760Z,101468.89
2022-09-23T06:23:27.563Z,101469.03
2022-09-23T06:24:32.787Z,101473.63
2022-09-23T06:25:37.055Z,101468.78
2022-09-23T06:26:41.317Z,101469.09
2022-09-23T06:27:45.562Z,101470.12
2022-09-23T06:28:49.809Z,101469.97
2022-09-23T06:29:54.051Z,101471.87
2022-09-23T06:30:58.543Z,101467.39
2022-09-23T06:32:03.145Z,101468.64
2022-09-23T06:33:07.468Z,101464.98
2022-09-23T06:34:17.838Z,101470.06
2022-09-23T06:35:28.114Z,101467.19
2022-09-23T06:36:45.714Z,101473.98
2022-09-23T06:37:50.700Z,101472.23
2022-09-23T06:38:54.938Z,101475.27
2022-09-23T06:39:59.218Z,101471.25
2022-09-23T06:41:03.502Z,101472.12
2022-09-23T06:42:07.772Z,101466.83
2022-09-23T06:43:12.037Z,101472.28
2022-09-23T06:44:16.296Z,101469.2
2022-09-23T06:45:20.554Z,101468.27
2022-09-23T06:46:25.021Z,101465.24
2022-09-23T06:47:29.440Z,101465.69
2022-09-23T06:48:33.724Z,101458.39
2022-09-23T06:49:37.990Z,101460.62
2022-09-23T06:50:42.246Z,101450.73
2022-09-23T06:51:46.558Z,101451.71
2022-09-23T06:52:50.815Z,101452.55
2022-09-23T06:53:55.063Z,101453.05
2022-09-23T06:54:59.357Z,101445.86
2022-09-23T06:56:03.660Z,101441.44
2022-09-23T06:57:07.992Z,101443.55
2022-09-23T06:58:12.273Z,101441.44
2022-09-23T06:59:16.511Z,101439.23
2022-09-23T07:00:20.807Z,101438.77
2022-09-23T07:01:25.179Z,101441.44
2022-09-23T07:02:30.434Z,101439.74
2022-09-23T07:03:34.984Z,101445.03
2022-09-23T07:04:39.232Z,101436.45
2022-09-23T07:05:43.513Z,101440.46
2022-09-23T07:06:47.776Z,101439.91
2022-09-23T07:07:52.056Z,101438.27
2022-09-23T07:08:56.319Z,101436.52
2022-09-23T07:10:00.595Z,101441.38
2022-09-23T07:11:04.858Z,101440.94
2022-09-23T07:12:09.145Z,101441.8
2022-09-23T07:13:17.263Z,101447.62
2022-09-23T07:14:21.514Z,101440.41
2022-09-23T07:15:26.014Z,101446.59
2022-09-23T07:16:30.355Z,101442.98
2022-09-23T07:17:34.800Z,101451.88
2022-09-23T07:18:39.183Z,101449.45
2022-09-23T07:19:43.498Z,101446.73
2022-09-23T07:20:47.797Z,101449.4
2022-09-23T07:21:52.043Z,101445.86
2022-09-23T07:22:56.351Z,101451.16
2022-09-23T07:24:00.646Z,101444.33
2022-09-23T07:25:04.927Z,101444.33
2022-09-23T07:26:09.199Z,101451.01
2022-09-23T07:27:13.489Z,101448.64
2022-09-23T07:28:17.813Z,101446.53
2022-09-23T07:29:22.087Z,101443.8
2022-09-23T07:30:26.779Z,101446.47
2022-09-23T07:31:40.210Z,101444.27
2022-09-23T07:32:50.021Z,101450.03
2022-09-23T07:33:54.402Z,101446.02
2022-09-23T07:34:58.729Z,101446.95
2022-09-23T07:36:02.978Z,101450.89
2022-09-23T07:37:07.234Z,101451.37
2022-09-23T07:38:11.494Z,101447.8
2022-09-23T07:39:15.750Z,101457.07
2022-09-23T07:40:20.191Z,101455.88
2022-09-23T07:41:24.610Z,101455.94
2022-09-23T07:42:28.914Z,101453.68
2022-09-23T07:43:33.227Z,101454.48
2022-09-23T07:44:37.545Z,101447.36
2022-09-23T07:45:41.840Z,101458.41
2022-09-23T07:46:46.357Z,101453.01
2022-09-23T07:47:50.728Z,101454.91
2022-09-23T07:48:55.289Z,101458.91
2022-09-23T07:49:59.573Z,101455.68
2022-09-23T07:51:03.832Z,101463.5
2022-09-23T07:52:08.086Z,101455.62
2022-09-23T07:53:12.353Z,101458.3
2022-09-23T07:54:16.663Z,101463.7
2022-09-23T07:55:22.178Z,101464.83
2022-09-23T07:56:26.437Z,101463.75
2022-09-23T07:57:30.795Z,101466.42
2022-09-23T07:58:35.128Z,101466.21
2022-09-23T07:59:39.436Z,101475.67
2022-09-23T08:00:43.695Z,101471.92
2022-09-23T08:01:48.088Z,101468.27
2022-09-23T08:02:54.279Z,101474.8
2022-09-23T08:03:58.848Z,101472.28
2022-09-23T08:05:03.156Z,101466.88
2022-09-23T08:06:07.425Z,101464.77
2022-09-23T08:07:11.702Z,101463.49
2022-09-23T08:08:15.950Z,101461.33
2022-09-23T08:09:20.211Z,101459.63
2022-09-23T08:10:24.491Z,101459.42
2022-09-23T08:11:28.763Z,101463.91
2022-09-23T08:12:33.051Z,101455.89
2022-09-23T08:13:37.339Z,101464.77
2022-09-23T08:14:41.633Z,101463.08
2022-09-23T08:15:45.969Z,101456.03
2022-09-23T08:16:51.308Z,101462.36
2022-09-23T08:17:55.693Z,101471.66
2022-09-23T08:19:00.192Z,101468
2022-09-23T08:20:04.793Z,101465.69
2022-09-23T08:21:09.051Z,101469.75
2022-09-23T08:22:13.338Z,101459.84
2022-09-23T08:23:17.641Z,101472.38
2022-09-23T08:24:21.902Z,101467.09
2022-09-23T08:25:26.210Z,101464.41
2022-09-23T08:26:30.751Z,101459.06
2022-09-23T08:27:35.025Z,101464.2
2022-09-23T08:28:39.335Z,101463.22
2022-09-23T08:29:43.615Z,101460.19
2022-09-23T08:30:47.967Z,101461.44
2022-09-23T08:31:52.349Z,101461.94
2022-09-23T08:32:56.716Z,101462.86
2022-09-23T08:34:01.232Z,101457.16
2022-09-23T08:35:05.632Z,101458.91
2022-09-23T08:36:09.881Z,101457.98
2022-09-23T08:37:14.131Z,101453.3
2022-09-23T08:38:18.406Z,101457.02
2022-09-23T08:39:22.698Z,101449
2022-09-23T08:40:27.076Z,101450.63
2022-09-23T08:41:31.440Z,101442.06
2022-09-23T08:42:35.682Z,101449.3
2022-09-23T08:43:39.957Z,101446.83
2022-09-23T08:44:44.240Z,101449
2022-09-23T08:45:48.542Z,101444.27
2022-09-23T08:46:52.849Z,101446.27
2022-09-23T08:47:57.132Z,101448.63
2022-09-23T08:49:01.381Z,101442.06
2022-09-23T08:50:05.697Z,101450.13
2022-09-23T08:51:09.969Z,101450.48
2022-09-23T08:52:14.231Z,101452.33
2022-09-23T08:53:18.526Z,101445.65
2022-09-23T08:54:22.777Z,101443.7
2022-09-23T08:55:27.078Z,101440.52
2022-09-23T08:56:36.480Z,101443.19
2022-09-23T08:57:40.771Z,101436.2
2022-09-23T08:58:45.049Z,101438.83
2022-09-23T08:59:49.412Z,101443.75
2022-09-23T09:00:53.687Z,101439.55
2022-09-23T09:01:57.966Z,101437.73
2022-09-23T09:03:02.226Z,101436.16
2022-09-23T09:04:12.571Z,101433.84
2022-09-23T09:05:17.095Z,101433.42
2022-09-23T09:06:21.353Z,101433.89
2022-09-23T09:07:38.187Z,101435.23
2022-09-23T09:08:42.767Z,101434.2
2022-09-23T09:09:47.066Z,101437.8
2022-09-23T09:10:51.344Z,101433.42
2022-09-23T09:11:55.639Z,101436.45
2022-09-23T09:12:59.899Z,101438.71
2022-09-23T09:14:06.560Z,101433.42
2022-09-23T09:15:10.820Z,101435.59
2022-09-23T09:16:16.244Z,101434.2
2022-09-23T09:17:24.410Z,101437.8
2022-09-23T09:18:28.668Z,101435.95
2022-09-23T09:19:32.938Z,101433.16
2022-09-23T09:20:37.233Z,101428.73
2022-09-23T09:21:41.537Z,101430.61
2022-09-23T09:22:45.805Z,101428.02
2022-09-23T09:23:50.041Z,101427.16
2022-09-23T09:24:54.340Z,101424.54
2022-09-23T09:25:58.616Z,101420.99
2022-09-23T09:27:02.924Z,101425.98
2022-09-23T09:28:07.209Z,101422.06
2022-09-23T09:29:35.218Z,101420.42
2022-09-23T09:30:41.055Z,101412.6
2022-09-23T09:31:51.001Z,101420.89
2022-09-23T09:32:55.286Z,101418.42
2022-09-23T09:33:59.577Z,101424.33
2022-09-23T09:35:03.829Z,101415.69
2022-09-23T09:36:08.166Z,101416.31
2022-09-23T09:37:12.574Z,101418.98
2022-09-23T09:38:16.899Z,101419.04
2022-09-23T09:39:26.945Z,101411.58
2022-09-23T09:40:31.407Z,101412.09
2022-09-23T09:41:35.810Z,101410.1
2022-09-23T09:42:40.097Z,101408.77
2022-09-23T09:43:45.345Z,101410.19
2022-09-23T09:44:49.615Z,101410.25
2022-09-23T09:45:59.036Z,101409.63
2022-09-23T09:47:03.390Z,101408.35
2022-09-23T09:48:07.816Z,101406.59
2022-09-23T09:49:12.108Z,101405.82
2022-09-23T09:50:16.385Z,101404.96
2022-09-23T09:51:20.686Z,101405.16
2022-09-23T09:52:25.010Z,101401.66
2022-09-23T09:53:29.264Z,101406.5
2022-09-23T09:54:33.540Z,101402.55
2022-09-23T09:55:38.888Z,101398.48
2022-09-23T09:56:43.273Z,101396.79
2022-09-23T09:57:47.597Z,101391.14
2022-09-23T09:58:51.873Z,101398.8
2022-09-23T09:59:56.168Z,101401
2022-09-23T10:01:00.677Z,101395.66
2022-09-23T10:02:05.050Z,101395.15
2022-09-23T10:03:09.297Z,101396.23
2022-09-23T10:04:13.729Z,101390.35
2022-09-23T10:05:18.030Z,101393.5
2022-09-23T10:06:22.336Z,101397.03
2022-09-23T10:07:26.581Z,101391.33
2022-09-23T10:08:30.850Z,101389.43
2022-09-23T10:09:35.208Z,101386.2
2022-09-23T10:10:39.468Z,101384.72
2022-09-23T10:11:43.754Z,101384.72
2022-09-23T10:12:48.034Z,101389.03
2022-09-23T10:13:52.316Z,101381.52
2022-09-23T10:14:56.690Z,101387.06
2022-09-23T10:16:00.950Z,101382.25
2022-09-23T10:17:05.444Z,101384.45
2022-09-23T10:18:09.975Z,101385.42
2022-09-23T10:19:14.252Z,101384.86
2022-09-23T10:20:18.530Z,101378.74
2022-09-23T10:21:28.502Z,101384.65
2022-09-23T10:22:32.791Z,101386.81
2022-09-23T10:23:37.084Z,101385.01
2022-09-23T10:24:41.345Z,101383.84
2022-09-23T10:25:45.626Z,101386.05
2022-09-23T10:26:49.902Z,101379
2022-09-23T10:27:54.191Z,101372.02
2022-09-23T10:28:58.431Z,101377.61
2022-09-23T10:30:02.722Z,101371.46
2022-09-23T10:31:07.193Z,101365.7
2022-09-23T10:32:11.628Z,101368.38
2022-09-23T10:33:15.931Z,101366.12
2022-09-23T10:34:20.212Z,101366.47
2022-09-23T10:35:24.519Z,101370.62
2022-09-23T10:36:28.807Z,101370.06
2022-09-23T10:37:33.127Z,101369.7
2022-09-23T10:38:37.395Z,101373.77
2022-09-23T10:39:41.671Z,101363.09
2022-09-23T10:40:46.203Z,101361.89
2022-09-23T10:41:50.874Z,101366.47
2022-09-23T10:42:55.155Z,101369.14
2022-09-23T10:43:59.413Z,101368.31
2022-09-23T10:45:03.984Z,101367.03
2022-09-23T10:46:08.453Z,101360.72
2022-09-23T10:47:12.867Z,101364.66
2022-09-23T10:48:17.145Z,101368.17
2022-09-23T10:49:21.427Z,101362.3
2022-09-23T10:50:25.737Z,101363.06
2022-09-23T10:51:30.137Z,101356.39
2022-09-23T10:52:34.412Z,101354.49
2022-09-23T10:53:38.923Z,101357.37
2022-09-23T10:54:43.189Z,101357.42
2022-09-23T10:55:47.464Z,101346.8
2022-09-23T10:56:51.716Z,101353.77
2022-09-23T10:57:56.004Z,101361.79
2022-09-23T10:59:00.260Z,101348.48
2022-09-23T11:00:04.559Z,101349.47
2022-09-23T11:01:09.090Z,101348.94
2022-09-23T11:02:13.451Z,101342.73
2022-09-23T11:03:18.126Z,101348.02
2022-09-23T11:04:22.465Z,101353.47
2022-09-23T11:05:26.930Z,101342.25
2022-09-23T11:06:31.216Z,101344.72
2022-09-23T11:07:38.276Z,101345.97
2022-09-23T11:08:42.590Z,101344.58
2022-09-23T11:09:46.846Z,101343.66
2022-09-23T11:10:51.125Z,101338.05
2022-09-23T11:11:55.511Z,101338.16
2022-09-23T11:12:59.766Z,101338.05
2022-09-23T11:14:04.118Z,101338.81
2022-09-23T11:15:08.650Z,101340.52
2022-09-23T11:16:13.106Z,101332.49
2022-09-23T11:17:17.601Z,101333.77
2022-09-23T11:18:21.887Z,101328.91
2022-09-23T11:19:26.184Z,101328.42
2022-09-23T11:20:30.436Z,101325.93
2022-09-23T11:21:34.740Z,101324.17
2022-09-23T11:22:39.333Z,101327
2022-09-23T11:23:43.626Z,101321.6
2022-09-23T11:24:47.913Z,101320.2
2022-09-23T11:25:52.226Z,101323.66
2022-09-23T11:26:56.539Z,101322.73
2022-09-23T11:28:00.804Z,101316.5
2022-09-23T11:29:05.499Z,101310.8
2022-09-23T11:30:09.921Z,101314.36
2022-09-23T11:31:14.331Z,101315.52
2022-09-23T11:32:18.691Z,101306.08
2022-09-23T11:33:22.954Z,101303.05
2022-09-23T11:34:27.249Z,101310.89
2022-09-23T11:35:31.548Z,101306.52
2022-09-23T11:36:35.852Z,101311.3
2022-09-23T11:37:40.264Z,101310.44
2022-09-23T11:38:44.541Z,101314.53
2022-09-23T11:39:48.843Z,101310.08
2022-09-23T11:40:53.285Z,101309.72
2022-09-23T11:41:57.707Z,101305.36
2022-09-23T11:43:01.985Z,101304.38
2022-09-23T11:44:06.399Z,101307.97
2022-09-23T11:45:10.801Z,101304.94
2022-09-23T11:46:15.385Z,101303.13
2022-09-23T11:47:19.826Z,101308.59
2022-09-23T11:48:24.081Z,101307.41
2022-09-23T11:49:28.377Z,101302.13
2022-09-23T11:50:32.687Z,101303.09
2022-09-23T11:51:36.963Z,101302.13
2022-09-23T11:52:41.267Z,101302.69
2022-09-23T11:53:45.518Z,101304.44
2022-09-23T11:54:49.787Z,101298.67
2022-09-23T11:55:59.204Z,101297.34
2022-09-23T11:57:03.515Z,101295.14
2022-09-23T11:58:25.845Z,101291.55
2022-09-23T11:59:41.046Z,101298.05
2022-09-23T12:00:58.870Z,101292.09
2022-09-23T12:02:20.930Z,101293.42
2022-09-23T12:03:45.009Z,101288.61
2022-09-23T12:04:58.970Z,101283.92
2022-09-23T12:06:03.713Z,101276.27
2022-09-23T12:07:07.988Z,101280.92
2022-09-23T12:08:12.235Z,101278.31
2022-09-23T12:09:16.565Z,101276.41
2022-09-23T12:10:20.850Z,101274.24
2022-09-23T12:11:25.083Z,101276.35
2022-09-23T12:12:29.394Z,101270.59
2022-09-23T12:13:33.668Z,101271
2022-09-23T12:14:37.955Z,101269.61
2022-09-23T12:15:42.333Z,101270.8
2022-09-23T12:16:46.685Z,101261.68
2022-09-23T12:17:51.224Z,101267.44
2022-09-23T12:18:55.482Z,101262.87
2022-09-23T12:19:59.766Z,101264.92
2022-09-23T12:21:04.089Z,101259.92
2022-09-23T12:22:08.378Z,101259.92